»·PEaware :: SWA281 KDAL-KSNA

SWA281 :: KDAL-KSNA

FLIGHT INFORMATION

Flight Status: Arrived
Operator:
Southwest Airlines
More flights by this operator :: More flights under this callsign
Pilot: Drew L. (13237)
Aircraft: BOEING 737-800
(B738)
More flights by this aircraft type
Origin: KDAL Dallas Love
United States
Destination: KSNA John Wayne-Orange Co
United States
More flights between these airports :: More routes between these airports
Route: SNSET4 HULZE TXO J72 ABQ J78 DRK HIMDU DSNEE3
File this flight plan on PilotEdge
Remarks: PBN / A1B1C1D1S1S2 DOF / 180416 REG / N806SB EET / KZAB0054 KZLA0222 OPR / SWA PER / C RMK / TCAS SIMBRIEF
Altitude:
(Current/Filed)
38,000ft
Speed:
(Current/Filed)
461kts
Departed: 16-Apr-18 04:15 AM
Arrived: 16-Apr-18 07:17 AM
Distance/Time
Traveled:
1054nm/3:02
Distance/Time
To Go:
Arrived

Flight Plot

Page will automatically refresh every two minutes.

Flight plan parsing failed; only flown route is shown


Map Options




Map Legend


Flown Route
Filed Route
Departure Airport
Arrival Airport
Navaid (VOR, NDB)
Fix

Horizontal Profiles

Position Reports

Time Latitude Longitude Heading Altitude Ground
Speed
16-Apr-18 03:51 32.846507 -96.847963 180 493ft 0kts
16-Apr-18 03:52 32.846507 -96.847963 180 493ft 0kts
16-Apr-18 03:53 32.846507 -96.847963 180 493ft 0kts
16-Apr-18 03:54 32.846507 -96.847963 180 493ft 0kts
16-Apr-18 03:55 32.846507 -96.847963 180 493ft 0kts
16-Apr-18 03:56 32.846507 -96.847963 180 493ft 0kts
16-Apr-18 03:57 32.846507 -96.847963 180 493ft 0kts
16-Apr-18 03:58 32.846507 -96.847963 180 493ft 0kts
16-Apr-18 03:59 32.846507 -96.847963 180 493ft 0kts
16-Apr-18 04:00 32.846507 -96.847963 180 493ft 0kts
16-Apr-18 04:01 32.846507 -96.847963 180 493ft 0kts
16-Apr-18 04:02 32.846507 -96.847963 180 493ft 0kts
16-Apr-18 04:03 32.846508 -96.847963 180 493ft 0kts
16-Apr-18 04:04 32.846973 -96.847956 180 493ft 2kts
16-Apr-18 04:05 32.846875 -96.848341 270 493ft 3kts
16-Apr-18 04:06 32.846899 -96.850602 270 493ft 7kts
16-Apr-18 04:07 32.846912 -96.851861 270 493ft 0kts
16-Apr-18 04:08 32.846912 -96.851862 270 493ft 0kts
16-Apr-18 04:09 32.846912 -96.851862 270 493ft 0kts
16-Apr-18 04:10 32.846135 -96.853748 259 493ft 14kts
16-Apr-18 04:11 32.846010 -96.856443 345 493ft 13kts
16-Apr-18 04:12 32.851528 -96.861827 316 494ft 22kts
16-Apr-18 04:13 32.850871 -96.862927 135 494ft 2kts
16-Apr-18 04:14 32.827134 -96.836150 135 1390ft 180kts
16-Apr-18 04:15 32.785968 -96.814901 220 4538ft 183kts
16-Apr-18 04:16 32.764629 -96.873712 252 6624ft 237kts
16-Apr-18 04:17 32.741462 -96.957553 251 9126ft 284kts
16-Apr-18 04:18 32.715904 -97.049585 251 11366ft 317kts
16-Apr-18 04:19 32.687531 -97.151575 251 14204ft 334kts
16-Apr-18 04:20 32.666986 -97.259184 280 17208ft 348kts
16-Apr-18 04:21 32.710198 -97.362767 300 19982ft 363kts
16-Apr-18 04:22 32.761313 -97.468118 300 22541ft 378kts
16-Apr-18 04:23 32.814309 -97.577994 300 24841ft 392kts
16-Apr-18 04:24 32.858985 -97.670845 298 27265ft 383kts
16-Apr-18 04:25 32.906007 -97.781874 290 29774ft 374kts
16-Apr-18 04:26 32.943283 -97.895593 290 31982ft 366kts
16-Apr-18 04:27 32.979648 -98.006974 289 33948ft 357kts
16-Apr-18 04:28 33.014235 -98.113258 289 35566ft 350kts
16-Apr-18 04:29 33.050384 -98.224775 289 36075ft 371kts
16-Apr-18 04:30 33.081394 -98.320035 289 37167ft 369kts
16-Apr-18 04:31 33.118052 -98.432830 290 38233ft 368kts
16-Apr-18 04:32 33.155638 -98.548882 290 38228ft 384kts
16-Apr-18 04:33 33.193573 -98.666412 289 38234ft 384kts
16-Apr-18 04:34 33.231652 -98.785334 289 38234ft 384kts
16-Apr-18 04:35 33.269555 -98.904043 289 38232ft 384kts
16-Apr-18 04:36 33.307650 -99.023666 289 38225ft 387kts
16-Apr-18 04:37 33.345777 -99.143793 289 38229ft 389kts
16-Apr-18 04:38 33.384007 -99.264713 289 38228ft 388kts
16-Apr-18 04:39 33.422021 -99.385348 288 38235ft 389kts
16-Apr-18 04:40 33.460089 -99.506547 288 38230ft 389kts
16-Apr-18 04:41 33.494987 -99.628705 287 38218ft 388kts
16-Apr-18 04:42 33.528798 -99.750865 286 38218ft 388kts
16-Apr-18 04:43 33.562602 -99.873427 286 38205ft 388kts
16-Apr-18 04:44 33.596311 -99.995998 286 38211ft 388kts
16-Apr-18 04:45 33.629970 -100.118752 286 38207ft 388kts
16-Apr-18 04:46 33.664131 -100.241443 289 38208ft 389kts
16-Apr-18 04:47 33.703762 -100.361941 289 38199ft 388kts
16-Apr-18 04:48 33.742129 -100.482904 289 38202ft 389kts
16-Apr-18 04:49 33.780022 -100.604190 289 38198ft 388kts
16-Apr-18 04:50 33.817819 -100.725394 288 38212ft 388kts
16-Apr-18 04:51 33.855864 -100.846998 288 38206ft 390kts
16-Apr-18 04:52 33.894379 -100.969525 288 38185ft 395kts
16-Apr-18 04:53 33.933590 -101.093888 288 38171ft 398kts
16-Apr-18 04:54 33.972849 -101.218029 288 38172ft 398kts
16-Apr-18 04:55 34.012296 -101.342416 288 38169ft 398kts
16-Apr-18 04:56 34.051893 -101.466895 288 38167ft 398kts
16-Apr-18 04:57 34.091667 -101.591543 289 38165ft 398kts
16-Apr-18 04:58 34.131341 -101.715692 288 38177ft 398kts
16-Apr-18 04:59 34.171188 -101.840045 288 38176ft 398kts
16-Apr-18 05:00 34.211183 -101.964331 289 38175ft 398kts
16-Apr-18 05:01 34.251310 -102.088627 289 38173ft 398kts
16-Apr-18 05:02 34.291552 -102.212899 289 38173ft 398kts
16-Apr-18 05:03 34.332021 -102.337501 289 38177ft 398kts
16-Apr-18 05:04 34.372518 -102.461840 289 38178ft 398kts
16-Apr-18 05:05 34.413218 -102.586441 289 38178ft 398kts
16-Apr-18 05:06 34.453951 -102.710978 289 38193ft 398kts
16-Apr-18 05:07 34.494624 -102.835194 289 38193ft 398kts
16-Apr-18 05:08 34.515403 -102.965825 277 38193ft 396kts
16-Apr-18 05:09 34.532198 -103.098356 277 38176ft 402kts
16-Apr-18 05:10 34.549657 -103.232819 277 38174ft 406kts
16-Apr-18 05:11 34.567296 -103.367546 277 38175ft 405kts
16-Apr-18 05:12 34.585111 -103.502522 277 38175ft 405kts
16-Apr-18 05:13 34.603035 -103.637205 277 38161ft 405kts
16-Apr-18 05:14 34.621065 -103.772139 277 38159ft 405kts
16-Apr-18 05:15 34.639273 -103.906922 277 38149ft 405kts
16-Apr-18 05:16 34.657632 -104.041631 277 38140ft 405kts
16-Apr-18 05:17 34.676213 -104.176885 277 38144ft 406kts
16-Apr-18 05:18 34.694853 -104.311517 278 38143ft 405kts
16-Apr-18 05:19 34.713705 -104.446627 278 38140ft 405kts
16-Apr-18 05:20 34.732631 -104.581239 278 38140ft 405kts
16-Apr-18 05:21 34.750436 -104.707220 277 38150ft 406kts
16-Apr-18 05:22 34.769643 -104.842280 278 38148ft 405kts
16-Apr-18 05:23 34.789002 -104.977031 277 38146ft 407kts
16-Apr-18 05:24 34.808637 -105.112621 277 38146ft 409kts
16-Apr-18 05:25 34.828513 -105.248945 277 38145ft 409kts
16-Apr-18 05:26 34.848481 -105.384886 277 38144ft 409kts
16-Apr-18 05:27 34.868637 -105.521135 278 38162ft 409kts
16-Apr-18 05:28 34.888861 -105.656874 277 38178ft 409kts
16-Apr-18 05:29 34.909097 -105.792382 277 38186ft 406kts
16-Apr-18 05:30 34.929423 -105.927336 277 38177ft 405kts
16-Apr-18 05:31 34.949847 -106.061926 277 38160ft 402kts
16-Apr-18 05:32 34.968208 -106.195334 276 38154ft 400kts
16-Apr-18 05:33 34.984629 -106.329192 275 38153ft 398kts
16-Apr-18 05:34 35.000909 -106.461876 276 38150ft 397kts
16-Apr-18 05:35 35.017267 -106.594473 276 38149ft 395kts
16-Apr-18 05:36 35.033400 -106.724924 275 38171ft 393kts
16-Apr-18 05:37 35.046189 -106.855420 266 38188ft 388kts
16-Apr-18 05:38 35.039889 -106.986266 264 38177ft 384kts
16-Apr-18 05:39 35.034334 -107.115881 264 38175ft 384kts
16-Apr-18 05:40 35.029026 -107.246153 264 38174ft 385kts
16-Apr-18 05:41 35.023883 -107.376242 264 38180ft 385kts
16-Apr-18 05:42 35.018876 -107.506458 265 38193ft 385kts
16-Apr-18 05:43 35.013985 -107.637235 265 38194ft 386kts
16-Apr-18 05:44 35.009164 -107.766951 264 38208ft 386kts
16-Apr-18 05:45 35.004504 -107.897689 264 38205ft 387kts
16-Apr-18 05:46 35.000007 -108.028572 265 38204ft 387kts
16-Apr-18 05:47 34.995643 -108.159814 265 38201ft 388kts
16-Apr-18 05:48 34.991413 -108.291134 265 38196ft 388kts
16-Apr-18 05:49 34.987319 -108.422503 265 38180ft 388kts
16-Apr-18 05:50 34.983358 -108.553865 265 38169ft 389kts
16-Apr-18 05:51 34.979563 -108.683392 265 38178ft 389kts
16-Apr-18 05:52 34.975739 -108.814888 265 38165ft 389kts
16-Apr-18 05:53 34.972096 -108.946748 265 38155ft 390kts
16-Apr-18 05:54 34.968758 -109.073073 265 38141ft 389kts
16-Apr-18 05:55 34.963817 -109.203976 262 38130ft 387kts
16-Apr-18 05:56 34.954306 -109.335050 262 38126ft 388kts
16-Apr-18 05:57 34.944585 -109.465876 262 38125ft 389kts
16-Apr-18 05:58 34.934868 -109.597325 262 38122ft 390kts
16-Apr-18 05:59 34.927635 -109.695727 262 38128ft 385kts
16-Apr-18 06:00 34.918241 -109.824076 262 38156ft 381kts
16-Apr-18 06:01 34.909111 -109.951355 262 38172ft 382kts
16-Apr-18 06:02 34.904616 -110.014852 262 38150ft 382kts
16-Apr-18 06:03 34.895595 -110.143715 262 38103ft 383kts
16-Apr-18 06:04 34.886688 -110.272799 262 38090ft 384kts
16-Apr-18 06:05 34.878116 -110.398767 262 38088ft 385kts
16-Apr-18 06:06 34.869282 -110.528758 262 38087ft 385kts
16-Apr-18 06:07 34.858878 -110.654636 261 38086ft 384kts
16-Apr-18 06:08 34.848572 -110.769180 261 38095ft 384kts
16-Apr-18 06:09 34.836893 -110.898106 261 38096ft 384kts
16-Apr-18 06:10 34.825481 -111.025257 260 38093ft 378kts
16-Apr-18 06:11 34.814262 -111.151476 260 38092ft 374kts
16-Apr-18 06:12 34.803235 -111.276783 260 38108ft 375kts
16-Apr-18 06:13 34.792287 -111.402863 260 38115ft 375kts
16-Apr-18 06:14 34.781517 -111.528347 260 38102ft 374kts
16-Apr-18 06:15 34.770904 -111.653494 260 38093ft 375kts
16-Apr-18 06:16 34.760278 -111.778700 260 38106ft 375kts
16-Apr-18 06:17 34.749895 -111.903266 260 38105ft 375kts
16-Apr-18 06:18 34.739676 -112.027750 260 38103ft 375kts
16-Apr-18 06:19 34.729530 -112.152911 261 38097ft 375kts
16-Apr-18 06:20 34.719434 -112.278953 261 38093ft 375kts
16-Apr-18 06:21 34.709489 -112.404618 261 38087ft 375kts
16-Apr-18 06:22 34.695706 -112.529562 254 38092ft 372kts
16-Apr-18 06:23 34.671688 -112.651225 254 38083ft 372kts
16-Apr-18 06:24 34.648034 -112.772188 254 38094ft 372kts
16-Apr-18 06:25 34.624363 -112.893869 253 38094ft 369kts
16-Apr-18 06:26 34.600931 -113.014261 253 38092ft 366kts
16-Apr-18 06:27 34.577539 -113.134040 253 38085ft 366kts
16-Apr-18 06:28 34.554065 -113.253777 253 38088ft 365kts
16-Apr-18 06:29 34.530467 -113.373670 253 38045ft 365kts
16-Apr-18 06:30 34.506819 -113.493306 253 37970ft 365kts
16-Apr-18 06:31 34.483124 -113.612614 253 37922ft 365kts
16-Apr-18 06:32 34.459451 -113.730670 252 37917ft 365kts
16-Apr-18 06:33 34.435811 -113.847663 252 37910ft 365kts
16-Apr-18 06:34 34.411646 -113.966860 252 37907ft 365kts
16-Apr-18 06:35 34.386622 -114.085708 251 37906ft 365kts
16-Apr-18 06:36 34.360651 -114.204449 251 37904ft 365kts
16-Apr-18 06:37 34.334715 -114.322667 252 37901ft 365kts
16-Apr-18 06:38 34.308901 -114.441173 252 37899ft 365kts
16-Apr-18 06:39 34.282953 -114.559837 252 37895ft 365kts
16-Apr-18 06:40 34.257406 -114.676053 251 37911ft 365kts
16-Apr-18 06:41 34.230971 -114.792098 251 37904ft 364kts
16-Apr-18 06:42 34.203982 -114.909440 251 37896ft 365kts
16-Apr-18 06:43 34.177291 -115.027368 251 37892ft 365kts
16-Apr-18 06:44 34.150917 -115.145645 251 37891ft 364kts
16-Apr-18 06:45 34.124588 -115.263228 251 37906ft 364kts
16-Apr-18 06:46 34.102513 -115.361462 251 37947ft 364kts
16-Apr-18 06:47 34.076016 -115.478953 251 37982ft 364kts
16-Apr-18 06:48 34.046955 -115.619944 256 36893ft 400kts
16-Apr-18 06:49 34.029014 -115.748356 255 34744ft 395kts
16-Apr-18 06:50 34.012976 -115.862931 255 32725ft 377kts
16-Apr-18 06:51 33.995535 -115.986084 255 30490ft 371kts
16-Apr-18 06:52 33.981264 -116.086583 255 28622ft 363kts
16-Apr-18 06:53 33.964453 -116.204315 255 26368ft 354kts
16-Apr-18 06:54 33.951003 -116.311481 257 24348ft 345kts
16-Apr-18 06:55 33.937167 -116.424256 257 22293ft 339kts
16-Apr-18 06:56 33.923937 -116.531650 257 20292ft 332kts
16-Apr-18 06:57 33.910526 -116.637358 257 18279ft 325kts
16-Apr-18 06:58 33.898433 -116.730928 257 16503ft 318kts
16-Apr-18 06:59 33.887134 -116.827075 258 14687ft 313kts
16-Apr-18 07:00 33.876593 -116.923674 258 12819ft 304kts
16-Apr-18 07:01 33.865703 -117.022540 260 10838ft 294kts
16-Apr-18 07:02 33.855133 -117.117380 262 9426ft 280kts
16-Apr-18 07:03 33.844916 -117.208714 263 8454ft 285kts
16-Apr-18 07:04 33.834456 -117.301535 264 7880ft 262kts
16-Apr-18 07:05 33.825734 -117.378052 264 7877ft 210kts
16-Apr-18 07:06 33.817847 -117.447638 265 7895ft 209kts
16-Apr-18 07:07 33.823407 -117.512199 279 7649ft 217kts
16-Apr-18 07:08 33.831615 -117.585067 278 6171ft 230kts
16-Apr-18 07:09 33.832394 -117.651841 272 5954ft 197kts
16-Apr-18 07:10 33.832444 -117.726180 272 4147ft 214kts
16-Apr-18 07:11 33.817506 -117.778727 212 2676ft 208kts
16-Apr-18 07:12 33.771794 -117.807845 207 1998ft 171kts
16-Apr-18 07:13 33.734676 -117.831403 207 1216ft 149kts
16-Apr-18 07:14 33.702922 -117.851563 207 543ft 148kts
16-Apr-18 07:15 33.671837 -117.871279 207 64ft 47kts
16-Apr-18 07:16 33.669050 -117.871492 125 64ft 0kts
16-Apr-18 07:17 33.671681 -117.868412 30 64ft 31kts
16-Apr-18 07:18 33.677352 -117.864404 28 64ft 17kts
16-Apr-18 07:19 33.677600 -117.863473 117 64ft 0kts
16-Apr-18 07:20 33.677600 -117.863473 117 64ft 0kts
16-Apr-18 07:21 33.677600 -117.863473 117 64ft 0kts
16-Apr-18 07:22 33.677600 -117.863473 117 64ft 0kts

Navigation Log

Ident Type
Flight plan parsing failed, navigation log unavailable